AAL1048 KPNS-KDFW
Flight info
| Callsign | AAL1048 |
|---|---|
| Flight time | N/A |
| Altitude | 36000 |
| Route | PENSI V198 LOXLY MEI SQS FEWWW BRDJE5 |
| Aircraft | A319/M-SDE3FGHIRWY/LB1 |
Departure
| Time | 2026-04-30 21:35 |
|---|---|
| Airport | Pensacola International Airport (KPNS) |
Arrival
| Time | N/A |
|---|---|
| Airport | Dallas Fort Worth International Airport (KDFW) |
| Time | Latitude | Longitude | Altitude | Speed | Heading |
|---|---|---|---|---|---|
| 2026-04-30 21:21 | 30.47495 | -87.19273 | 129 ft | 0 kts | 27° |
| 2026-04-30 21:27 | 30.47491 | -87.19275 | 127 ft | 3 kts | 28° |
| 2026-04-30 21:27 | 30.47469 | -87.19292 | 124 ft | 4 kts | 45° |
| 2026-04-30 21:28 | 30.47454 | -87.19344 | 140 ft | 3 kts | 116° |
| 2026-04-30 21:28 | 30.47455 | -87.19347 | 140 ft | 0 kts | 117° |
| 2026-04-30 21:31 | 30.47455 | -87.19346 | 140 ft | 1 kts | 117° |
| 2026-04-30 21:31 | 30.47402 | -87.19228 | 125 ft | 14 kts | 98° |
| 2026-04-30 21:32 | 30.47399 | -87.19006 | 126 ft | 16 kts | 123° |
| 2026-04-30 21:32 | 30.47294 | -87.18957 | 123 ft | 18 kts | 167° |
| 2026-04-30 21:32 | 30.47171 | -87.18925 | 124 ft | 18 kts | 167° |
| 2026-04-30 21:32 | 30.47047 | -87.18893 | 123 ft | 19 kts | 167° |
| 2026-04-30 21:33 | 30.46916 | -87.18858 | 123 ft | 20 kts | 167° |
| 2026-04-30 21:33 | 30.46637 | -87.18784 | 124 ft | 21 kts | 167° |
| 2026-04-30 21:33 | 30.46493 | -87.18747 | 136 ft | 21 kts | 167° |
| 2026-04-30 21:34 | 30.46404 | -87.18690 | 125 ft | 12 kts | 97° |
| 2026-04-30 21:34 | 30.46517 | -87.18593 | 126 ft | 13 kts | 346° |
| 2026-04-30 21:34 | 30.46768 | -87.18660 | 125 ft | 77 kts | 347° |
| 2026-04-30 21:35 | 30.47546 | -87.18867 | 159 ft | 145 kts | 346° |
| 2026-04-30 21:35 | 30.48581 | -87.19137 | 676 ft | 161 kts | 348° |
| 2026-04-30 21:35 | 30.49718 | -87.19449 | 1368 ft | 172 kts | 345° |
| 2026-04-30 21:35 | 30.50892 | -87.19813 | 2070 ft | 184 kts | 344° |
| 2026-04-30 21:36 | 30.52210 | -87.20186 | 2433 ft | 206 kts | 345° |
| 2026-04-30 21:36 | 30.53698 | -87.20587 | 2844 ft | 231 kts | 345° |
| 2026-04-30 21:37 | 30.58921 | -87.21971 | 5195 ft | 270 kts | 344° |
| 2026-04-30 21:37 | 30.60763 | -87.22458 | 6167 ft | 273 kts | 344° |
| 2026-04-30 21:37 | 30.62629 | -87.22956 | 7114 ft | 277 kts | 343° |
| 2026-04-30 21:37 | 30.64516 | -87.23457 | 8062 ft | 279 kts | 343° |
| 2026-04-30 21:38 | 30.66395 | -87.23952 | 9001 ft | 281 kts | 342° |
| 2026-04-30 21:38 | 30.68311 | -87.24455 | 9916 ft | 284 kts | 342° |
| 2026-04-30 21:38 | 30.70274 | -87.24976 | 10433 ft | 300 kts | 341° |
| 2026-04-30 21:38 | 30.72387 | -87.25549 | 10716 ft | 324 kts | 342° |
| 2026-04-30 21:39 | 30.74601 | -87.26305 | 11139 ft | 335 kts | 331° |
| 2026-04-30 21:39 | 30.76545 | -87.27769 | 11845 ft | 333 kts | 314° |
| 2026-04-30 21:39 | 30.77988 | -87.29855 | 12623 ft | 332 kts | 297° |
| 2026-04-30 21:39 | 30.78791 | -87.32364 | 13430 ft | 333 kts | 280° |
| 2026-04-30 21:40 | 30.78892 | -87.35018 | 14151 ft | 336 kts | 267° |
| 2026-04-30 21:40 | 30.78732 | -87.37737 | 14848 ft | 338 kts | 267° |
| 2026-04-30 21:40 | 30.78567 | -87.40478 | 15563 ft | 341 kts | 267° |
| 2026-04-30 21:40 | 30.78401 | -87.43237 | 16288 ft | 343 kts | 267° |
| 2026-04-30 21:41 | 30.78233 | -87.46019 | 17004 ft | 346 kts | 267° |
| 2026-04-30 21:41 | 30.78067 | -87.48814 | 17707 ft | 348 kts | 267° |
| 2026-04-30 21:41 | 30.77900 | -87.51637 | 18389 ft | 351 kts | 267° |
| 2026-04-30 21:41 | 30.77734 | -87.54480 | 18980 ft | 354 kts | 267° |
| 2026-04-30 21:42 | 30.77566 | -87.57351 | 19560 ft | 358 kts | 267° |
| 2026-04-30 21:42 | 30.77393 | -87.60252 | 20127 ft | 361 kts | 267° |
| 2026-04-30 21:42 | 30.77214 | -87.63176 | 20682 ft | 365 kts | 267° |
| 2026-04-30 21:42 | 30.77035 | -87.66091 | 21205 ft | 368 kts | 267° |
| 2026-04-30 21:43 | 30.76851 | -87.69076 | 21721 ft | 372 kts | 266° |
| 2026-04-30 21:43 | 30.76663 | -87.72082 | 22245 ft | 375 kts | 267° |
| 2026-04-30 21:43 | 30.76736 | -87.75113 | 22796 ft | 376 kts | 279° |
| 2026-04-30 21:43 | 30.77498 | -87.78029 | 23307 ft | 381 kts | 293° |
| 2026-04-30 21:44 | 30.78939 | -87.80646 | 23736 ft | 390 kts | 307° |
| 2026-04-30 21:44 | 30.80998 | -87.82757 | 24172 ft | 401 kts | 322° |
| 2026-04-30 21:44 | 30.83460 | -87.84341 | 24600 ft | 406 kts | 326° |
| 2026-04-30 21:44 | 30.85932 | -87.85848 | 25051 ft | 407 kts | 326° |
| 2026-04-30 21:45 | 30.88439 | -87.87376 | 25511 ft | 408 kts | 326° |
| 2026-04-30 21:45 | 30.90959 | -87.88915 | 25961 ft | 409 kts | 326° |
| 2026-04-30 21:45 | 30.93479 | -87.90458 | 26403 ft | 410 kts | 326° |
| 2026-04-30 21:45 | 30.96004 | -87.92006 | 26885 ft | 411 kts | 325° |
| 2026-04-30 21:46 | 30.98529 | -87.93556 | 27356 ft | 411 kts | 325° |
| 2026-04-30 21:46 | 31.01062 | -87.95110 | 27787 ft | 412 kts | 325° |
| 2026-04-30 21:46 | 31.03600 | -87.96666 | 28197 ft | 413 kts | 325° |
| 2026-04-30 21:46 | 31.06147 | -87.98227 | 28594 ft | 415 kts | 325° |
| 2026-04-30 21:47 | 31.08671 | -87.99777 | 28983 ft | 416 kts | 325° |
| 2026-04-30 21:47 | 31.11242 | -88.01355 | 29370 ft | 418 kts | 325° |
| 2026-04-30 21:47 | 31.13818 | -88.02937 | 29743 ft | 419 kts | 325° |
| 2026-04-30 21:47 | 31.16398 | -88.04524 | 30180 ft | 418 kts | 324° |
| 2026-04-30 21:48 | 31.18968 | -88.06107 | 30667 ft | 416 kts | 324° |
| 2026-04-30 21:48 | 31.21515 | -88.07677 | 31148 ft | 413 kts | 324° |
| 2026-04-30 21:48 | 31.24047 | -88.09238 | 31663 ft | 410 kts | 324° |
| 2026-04-30 21:48 | 31.26528 | -88.10766 | 32163 ft | 407 kts | 324° |
| 2026-04-30 21:49 | 31.29023 | -88.12302 | 32660 ft | 404 kts | 323° |
| 2026-04-30 21:49 | 31.31500 | -88.13832 | 33141 ft | 402 kts | 323° |
| 2026-04-30 21:49 | 31.33967 | -88.15362 | 33610 ft | 400 kts | 323° |
| 2026-04-30 21:49 | 31.36419 | -88.16882 | 34066 ft | 398 kts | 323° |
| 2026-04-30 21:50 | 31.38860 | -88.18394 | 34462 ft | 397 kts | 323° |
| 2026-04-30 21:50 | 31.41298 | -88.19903 | 34818 ft | 397 kts | 323° |
| 2026-04-30 21:50 | 31.43740 | -88.21416 | 35155 ft | 397 kts | 323° |
| 2026-04-30 21:50 | 31.46180 | -88.22931 | 35473 ft | 397 kts | 323° |
| 2026-04-30 21:51 | 31.48588 | -88.24428 | 35775 ft | 398 kts | 323° |
| 2026-04-30 21:51 | 31.51038 | -88.25948 | 35952 ft | 399 kts | 323° |
| 2026-04-30 21:51 | 31.55950 | -88.28994 | 35969 ft | 399 kts | 322° |
| 2026-04-30 21:52 | 31.60846 | -88.32039 | 35970 ft | 398 kts | 322° |
| 2026-04-30 21:52 | 31.65746 | -88.35089 | 35973 ft | 399 kts | 322° |
| 2026-04-30 21:53 | 31.70609 | -88.38122 | 35975 ft | 399 kts | 322° |
| 2026-04-30 21:53 | 31.75505 | -88.41187 | 35978 ft | 398 kts | 322° |
| 2026-04-30 21:54 | 31.80398 | -88.44246 | 36020 ft | 398 kts | 322° |
| 2026-04-30 21:54 | 31.85278 | -88.47302 | 36001 ft | 396 kts | 322° |
| 2026-04-30 21:55 | 31.90109 | -88.50323 | 35997 ft | 396 kts | 322° |
| 2026-04-30 21:55 | 31.94967 | -88.53370 | 35992 ft | 396 kts | 322° |
| 2026-04-30 21:56 | 31.99830 | -88.56420 | 35990 ft | 396 kts | 322° |
| 2026-04-30 21:56 | 32.04687 | -88.59473 | 35988 ft | 396 kts | 322° |
| 2026-04-30 21:57 | 32.09509 | -88.62508 | 36030 ft | 395 kts | 322° |
| 2026-04-30 21:57 | 32.14355 | -88.65564 | 36021 ft | 394 kts | 322° |
| 2026-04-30 21:58 | 32.19183 | -88.68611 | 36017 ft | 393 kts | 322° |
| 2026-04-30 21:58 | 32.24005 | -88.71655 | 36008 ft | 393 kts | 322° |
| 2026-04-30 21:59 | 32.28816 | -88.74699 | 36001 ft | 392 kts | 322° |
| 2026-04-30 22:00 | 32.35982 | -88.79259 | 36037 ft | 390 kts | 320° |
| 2026-04-30 22:00 | 32.39985 | -88.83262 | 36031 ft | 371 kts | 304° |
| 2026-04-30 22:00 | 32.41693 | -88.85547 | 36021 ft | 371 kts | 304° |
| 2026-04-30 22:01 | 32.45122 | -88.90117 | 36013 ft | 371 kts | 304° |
| 2026-04-30 22:01 | 32.48548 | -88.94691 | 36010 ft | 371 kts | 304° |
| 2026-04-30 22:02 | 32.51955 | -88.99235 | 36009 ft | 372 kts | 304° |
| 2026-04-30 22:02 | 32.55384 | -89.03816 | 36003 ft | 371 kts | 304° |
| 2026-04-30 22:03 | 32.58804 | -89.08401 | 35993 ft | 371 kts | 304° |
| 2026-04-30 22:03 | 32.62225 | -89.12997 | 36039 ft | 371 kts | 304° |
| 2026-04-30 22:04 | 32.65643 | -89.17583 | 36030 ft | 370 kts | 304° |
| 2026-04-30 22:05 | 32.70727 | -89.24415 | 36031 ft | 369 kts | 304° |
| 2026-04-30 22:05 | 32.74117 | -89.28981 | 36025 ft | 368 kts | 304° |
| 2026-04-30 22:06 | 32.77503 | -89.33548 | 36017 ft | 368 kts | 304° |
| 2026-04-30 22:06 | 32.82545 | -89.40365 | 36006 ft | 368 kts | 304° |
| 2026-04-30 22:07 | 32.85918 | -89.44930 | 36002 ft | 367 kts | 304° |
| 2026-04-30 22:07 | 32.89291 | -89.49504 | 36036 ft | 368 kts | 304° |
| 2026-04-30 22:08 | 32.92662 | -89.54075 | 36030 ft | 367 kts | 304° |
| 2026-04-30 22:08 | 32.96018 | -89.58631 | 36027 ft | 366 kts | 304° |
| 2026-04-30 22:09 | 32.99341 | -89.63153 | 36023 ft | 365 kts | 304° |
| 2026-04-30 22:09 | 33.02684 | -89.67702 | 36007 ft | 365 kts | 304° |
| 2026-04-30 22:10 | 33.06019 | -89.72251 | 36014 ft | 364 kts | 304° |
| 2026-04-30 22:10 | 33.09357 | -89.76800 | 36007 ft | 364 kts | 304° |
| 2026-04-30 22:11 | 33.14350 | -89.83625 | 36003 ft | 364 kts | 304° |
| 2026-04-30 22:12 | 33.17656 | -89.88151 | 36035 ft | 363 kts | 303° |
| 2026-04-30 22:12 | 33.20962 | -89.92679 | 36026 ft | 362 kts | 303° |
| 2026-04-30 22:13 | 33.24262 | -89.97210 | 36021 ft | 361 kts | 303° |
| 2026-04-30 22:13 | 33.27557 | -90.01739 | 36008 ft | 361 kts | 303° |
| 2026-04-30 22:14 | 33.30830 | -90.06247 | 36004 ft | 361 kts | 303° |
| 2026-04-30 22:14 | 33.34122 | -90.10786 | 36006 ft | 361 kts | 303° |
| 2026-04-30 22:15 | 33.37416 | -90.15329 | 36005 ft | 361 kts | 303° |
| 2026-04-30 22:15 | 33.40702 | -90.19873 | 36005 ft | 361 kts | 303° |
| 2026-04-30 22:16 | 33.43994 | -90.24426 | 36006 ft | 361 kts | 303° |
| 2026-04-30 22:17 | 33.47953 | -90.34913 | 36012 ft | 347 kts | 283° |
| 2026-04-30 22:17 | 33.49781 | -90.43315 | 36009 ft | 348 kts | 283° |
| 2026-04-30 22:18 | 33.51600 | -90.51697 | 36024 ft | 348 kts | 283° |
| 2026-04-30 22:19 | 33.53413 | -90.60125 | 36027 ft | 348 kts | 282° |
| 2026-04-30 22:20 | 33.55223 | -90.68559 | 36032 ft | 348 kts | 282° |
| 2026-04-30 22:20 | 33.57026 | -90.76963 | 36048 ft | 349 kts | 282° |
| 2026-04-30 22:21 | 33.58227 | -90.82592 | 36048 ft | 349 kts | 282° |
| 2026-04-30 22:21 | 33.59430 | -90.88228 | 36048 ft | 349 kts | 282° |
| 2026-04-30 22:22 | 33.60625 | -90.93864 | 36017 ft | 349 kts | 282° |
| 2026-04-30 22:22 | 33.61821 | -90.99508 | 36016 ft | 349 kts | 282° |
| 2026-04-30 22:23 | 33.63008 | -91.05109 | 36019 ft | 349 kts | 282° |
| 2026-04-30 22:23 | 33.64201 | -91.10747 | 36025 ft | 349 kts | 282° |
| 2026-04-30 22:24 | 33.65388 | -91.16392 | 36026 ft | 349 kts | 282° |
| 2026-04-30 22:24 | 33.66370 | -91.21082 | 36035 ft | 349 kts | 282° |
| 2026-04-30 22:25 | 33.67745 | -91.27645 | 36061 ft | 349 kts | 282° |
| 2026-04-30 22:25 | 33.68924 | -91.33287 | 36090 ft | 348 kts | 282° |
| 2026-04-30 22:26 | 33.70474 | -91.40768 | 36076 ft | 346 kts | 282° |
| 2026-04-30 22:27 | 33.71641 | -91.46370 | 36067 ft | 346 kts | 282° |
| 2026-04-30 22:27 | 33.73569 | -91.55682 | 36053 ft | 345 kts | 282° |
| 2026-04-30 22:28 | 33.75103 | -91.63130 | 36053 ft | 345 kts | 282° |
| 2026-04-30 22:29 | 33.77401 | -91.74330 | 36047 ft | 345 kts | 282° |
| 2026-04-30 22:31 | 33.81399 | -91.93894 | 36037 ft | 345 kts | 282° |
| 2026-04-30 22:32 | 33.84247 | -92.07935 | 36040 ft | 346 kts | 282° |
| 2026-04-30 22:33 | 33.87068 | -92.21961 | 36042 ft | 346 kts | 282° |
| 2026-04-30 22:35 | 33.89875 | -92.36000 | 36057 ft | 346 kts | 281° |
| 2026-04-30 22:36 | 33.92666 | -92.50101 | 36044 ft | 347 kts | 282° |
| 2026-04-30 22:37 | 33.94899 | -92.61342 | 36078 ft | 346 kts | 281° |
| 2026-04-30 22:38 | 33.97111 | -92.72588 | 36065 ft | 345 kts | 281° |
| 2026-04-30 22:39 | 33.98759 | -92.80972 | 36064 ft | 345 kts | 281° |
| 2026-04-30 22:40 | 34.02035 | -92.97865 | 36063 ft | 345 kts | 281° |
| 2026-04-30 22:41 | 34.04747 | -93.11884 | 36044 ft | 344 kts | 281° |
| 2026-04-30 22:43 | 34.07985 | -93.28740 | 36042 ft | 345 kts | 281° |
| 2026-04-30 22:44 | 34.10136 | -93.40027 | 36039 ft | 345 kts | 281° |
| 2026-04-30 22:45 | 34.13331 | -93.56950 | 36030 ft | 346 kts | 281° |
| 2026-04-30 22:47 | 34.16524 | -93.73930 | 36074 ft | 345 kts | 281° |
| 2026-04-30 22:48 | 34.18631 | -93.85197 | 36025 ft | 345 kts | 280° |
| 2026-04-30 22:49 | 34.18475 | -93.93754 | 36019 ft | 350 kts | 256° |
| 2026-04-30 22:49 | 34.15948 | -94.02007 | 36014 ft | 351 kts | 255° |
| 2026-04-30 22:51 | 34.10870 | -94.18567 | 35986 ft | 352 kts | 255° |
| 2026-04-30 22:52 | 34.08306 | -94.26883 | 35993 ft | 353 kts | 255° |
| 2026-04-30 22:53 | 34.04870 | -94.37969 | 35998 ft | 353 kts | 255° |
| 2026-04-30 22:53 | 34.02298 | -94.46243 | 36003 ft | 353 kts | 255° |
| 2026-04-30 22:55 | 33.97992 | -94.60080 | 35999 ft | 353 kts | 255° |
| 2026-04-30 22:56 | 33.94551 | -94.71105 | 35993 ft | 353 kts | 255° |
| 2026-04-30 22:57 | 33.90229 | -94.84881 | 35990 ft | 353 kts | 255° |
| 2026-04-30 22:58 | 33.86750 | -94.95909 | 35986 ft | 353 kts | 255° |
| 2026-04-30 22:59 | 33.81495 | -95.12455 | 35984 ft | 355 kts | 255° |